createdAt,value
2022-11-01T00:03:17.437Z,100109.78
2022-11-01T00:08:23.118Z,100088.00
2022-11-01T00:13:25.669Z,100082.06
2022-11-01T00:18:29.599Z,100081.06
2022-11-01T00:23:32.295Z,100084.91
2022-11-01T00:28:35.489Z,100083.59
2022-11-01T00:33:39.629Z,100083.94
2022-11-01T00:38:42.406Z,100077.22
2022-11-01T00:43:44.976Z,100081.69
2022-11-01T00:48:48.890Z,100075.00
2022-11-01T00:53:51.901Z,100070.72
2022-11-01T00:58:54.560Z,100067.22
2022-11-01T01:03:58.930Z,100058.84
2022-11-01T01:09:02.111Z,100050.53
2022-11-01T01:14:04.750Z,100059.50
2022-11-01T01:19:08.622Z,100065.47
2022-11-01T01:24:11.336Z,100078.28
2022-11-01T01:29:14.148Z,100067.41
2022-11-01T01:34:18.520Z,100072.34
2022-11-01T01:39:21.076Z,100069.91
2022-11-01T01:45:01.056Z,100064.44
2022-11-01T01:50:08.035Z,100055.41
2022-11-01T01:55:11.480Z,100053.94
2022-11-01T02:00:15.553Z,100047.69
2022-11-01T02:05:23.402Z,100044.41
2022-11-01T02:10:25.950Z,100034.34
2022-11-01T02:15:38.232Z,100028.56
2022-11-01T02:21:09.476Z,100031.38
2022-11-01T02:26:26.875Z,100016.38
2022-11-01T02:31:45.949Z,100011.44
2022-11-01T02:36:53.898Z,100016.59
2022-11-01T02:41:59.680Z,100025.69
2022-11-01T02:47:03.336Z,100032.13
2022-11-01T02:52:09.398Z,100022.50
2022-11-01T02:57:28.224Z,100021.66
2022-11-01T03:02:40.314Z,100013.25
2022-11-01T03:07:48.830Z,100012.38
2022-11-01T03:12:58.288Z,100030.69
2022-11-01T03:18:04.085Z,100026.97
2022-11-01T03:23:08.918Z,100022.97
2022-11-01T03:28:16.265Z,100028.81
2022-11-01T03:33:19.720Z,100013.94
2022-11-01T03:38:26.414Z,100027.06
2022-11-01T03:43:31.464Z,100035.09
2022-11-01T03:48:34.103Z,100022.19
2022-11-01T03:53:38.266Z,100013.09
2022-11-01T03:58:45.152Z,100030.56
2022-11-01T04:03:47.720Z,100030.66
2022-11-01T04:08:51.624Z,100034.94
2022-11-01T04:14:14.220Z,100041.22
2022-11-01T04:19:34.255Z,100060.56
2022-11-01T04:24:38.155Z,100033.63
2022-11-01T04:29:40.701Z,100054.88
2022-11-01T04:34:43.251Z,100039.69
2022-11-01T04:39:47.157Z,100038.84
2022-11-01T04:44:49.756Z,100037.03
2022-11-01T04:49:52.342Z,100025.09
2022-11-01T04:54:56.285Z,100026.25
2022-11-01T04:59:59.465Z,100028.22
2022-11-01T05:05:02.065Z,100023.59
2022-11-01T05:10:07.485Z,100025.84
2022-11-01T05:15:10.475Z,100021.41
2022-11-01T05:20:13.171Z,100023.22
2022-11-01T05:25:18.614Z,100038.44
2022-11-01T05:30:21.166Z,100024.06
2022-11-01T05:35:24.127Z,100036.41
2022-11-01T05:40:28.008Z,100029.34
2022-11-01T05:45:30.663Z,100021.22
2022-11-01T05:50:33.297Z,100041.19
2022-11-01T05:55:37.763Z,100033.19
2022-11-01T06:00:40.421Z,100057.69
2022-11-01T06:05:43.111Z,100054.34
2022-11-01T06:10:47.119Z,100027.59
2022-11-01T06:15:50.071Z,100052.63
2022-11-01T06:20:53.001Z,100060.19
2022-11-01T06:26:02.060Z,100061.03
2022-11-01T06:36:12.871Z,100077.00
2022-11-01T06:41:17.322Z,100082.09
2022-11-01T06:46:19.868Z,100113.28
2022-11-01T06:51:22.411Z,100130.41
2022-11-01T06:56:26.413Z,100137.00
2022-11-01T07:01:29.309Z,100160.25
2022-11-01T07:06:32.228Z,100170.13
2022-11-01T07:11:36.187Z,100173.03
2022-11-01T07:16:39.335Z,100162.09
2022-11-01T07:21:41.981Z,100176.41
2022-11-01T07:26:45.894Z,100179.34
2022-11-01T07:31:49.530Z,100162.38
2022-11-01T07:36:53.332Z,100154.19
2022-11-01T07:41:57.296Z,100154.56
2022-11-01T07:47:00.007Z,100152.66
2022-11-01T07:52:04.165Z,100144.97
2022-11-01T07:57:09.142Z,100169.06
2022-11-01T08:02:11.920Z,100169.34
2022-11-01T08:07:14.677Z,100190.59
2022-11-01T08:12:18.609Z,100197.63
2022-11-01T08:17:21.208Z,100204.88
2022-11-01T08:22:23.888Z,100200.66
2022-11-01T08:27:30.326Z,100196.28
2022-11-01T08:32:35.517Z,100198.53
2022-11-01T08:37:38.546Z,100196.06
2022-11-01T08:42:42.451Z,100197.91
2022-11-01T08:47:45.402Z,100213.81
2022-11-01T08:52:47.967Z,100210.59
2022-11-01T08:57:51.927Z,100222.72
2022-11-01T09:02:54.555Z,100223.63
2022-11-01T09:07:58.590Z,100231.66
2022-11-01T09:13:03.087Z,100225.78
2022-11-01T09:18:07.067Z,100207.56
2022-11-01T09:23:09.742Z,100210.63
2022-11-01T09:28:13.969Z,100225.00
2022-11-01T09:33:16.608Z,100242.63
2022-11-01T09:38:19.666Z,100255.59
2022-11-01T09:43:26.605Z,100259.81
2022-11-01T09:48:31.361Z,100261.97
2022-11-01T09:53:34.027Z,100275.34
2022-11-01T09:58:46.761Z,100293.16
2022-11-01T10:03:57.886Z,100294.31
2022-11-01T10:09:08.879Z,100303.34
2022-11-01T10:14:20.151Z,100310.28
2022-11-01T10:19:23.817Z,100295.19
2022-11-01T10:24:32.308Z,100289.63
2022-11-01T10:29:42.137Z,100295.88
2022-11-01T10:34:44.715Z,100295.28
2022-11-01T10:39:55.596Z,100290.56
2022-11-01T10:45:03.196Z,100294.09
2022-11-01T10:50:10.386Z,100291.03
2022-11-01T10:55:14.250Z,100278.09
2022-11-01T11:00:20.355Z,100287.44
2022-11-01T11:05:24.354Z,100288.06
2022-11-01T11:10:28.498Z,100281.50
2022-11-01T11:15:40.817Z,100284.31
2022-11-01T11:20:44.022Z,100286.50
2022-11-01T11:25:46.608Z,100294.28
2022-11-01T11:30:54.487Z,100306.75
2022-11-01T11:35:59.768Z,100307.00
2022-11-01T11:41:02.581Z,100300.81
2022-11-01T11:46:08.838Z,100298.91
2022-11-01T11:51:11.622Z,100291.16
2022-11-01T11:56:14.226Z,100297.69
2022-11-01T12:01:22.072Z,100305.28
2022-11-01T12:06:26.998Z,100312.81
2022-11-01T12:11:39.329Z,100313.88
2022-11-01T12:16:43.711Z,100310.41
2022-11-01T12:21:46.495Z,100308.34
2022-11-01T12:26:51.534Z,100312.66
2022-11-01T12:31:56.832Z,100318.34
2022-11-01T12:37:02.138Z,100312.63
2022-11-01T12:42:05.693Z,100312.00
2022-11-01T12:47:17.682Z,100319.88
2022-11-01T12:52:24.622Z,100318.25
2022-11-01T12:57:27.251Z,100325.19
2022-11-01T13:02:52.615Z,100322.13
2022-11-01T13:08:01.277Z,100334.88
2022-11-01T13:13:16.672Z,100340.88
2022-11-01T13:18:27.201Z,100335.81
2022-11-01T13:23:32.105Z,100344.31
2022-11-01T13:28:50.137Z,100353.31
2022-11-01T13:34:00.392Z,100344.06
2022-11-01T13:39:08.904Z,100354.50
2022-11-01T13:44:14.635Z,100345.88
2022-11-01T13:49:53.127Z,100354.63
2022-11-01T13:55:07.024Z,100351.53
2022-11-01T14:00:40.490Z,100359.00
2022-11-01T14:05:45.581Z,100369.50
2022-11-01T14:10:52.082Z,100365.75
2022-11-01T14:16:26.273Z,100361.41
2022-11-01T14:21:31.974Z,100364.44
2022-11-01T14:26:40.222Z,100361.19
2022-11-01T14:31:46.739Z,100366.75
2022-11-01T14:36:50.196Z,100364.72
2022-11-01T14:41:56.340Z,100359.84
2022-11-01T14:47:03.024Z,100354.13
2022-11-01T14:52:08.300Z,100366.38
2022-11-01T14:57:21.653Z,100369.03
2022-11-01T15:02:29.008Z,100368.59
2022-11-01T15:07:33.909Z,100377.75
2022-11-01T15:12:43.609Z,100381.38
2022-11-01T15:17:54.245Z,100373.34
2022-11-01T15:22:57.712Z,100375.69
2022-11-01T15:28:00.290Z,100372.75
2022-11-01T15:33:19.462Z,100374.28
2022-11-01T15:38:23.381Z,100385.84
2022-11-01T15:43:27.873Z,100377.56
2022-11-01T15:48:33.852Z,100379.53
2022-11-01T15:53:38.143Z,100384.63
2022-11-01T15:58:45.132Z,100384.91
2022-11-01T16:03:51.418Z,100391.63
2022-11-01T16:08:57.529Z,100399.94
2022-11-01T16:14:02.011Z,100405.59
2022-11-01T16:19:38.533Z,100395.00
2022-11-01T16:24:41.153Z,100400.66
2022-11-01T16:29:50.703Z,100395.53
2022-11-01T16:34:55.679Z,100411.00
2022-11-01T16:39:58.992Z,100413.75
2022-11-01T16:45:01.614Z,100415.28
2022-11-01T16:50:06.457Z,100430.91
2022-11-01T16:55:11.163Z,100439.06
2022-11-01T17:00:15.340Z,100434.75
2022-11-01T17:05:23.499Z,100435.13
2022-11-01T17:10:26.696Z,100437.47
2022-11-01T17:15:36.881Z,100438.38
2022-11-01T17:20:42.048Z,100445.41
2022-11-01T17:25:46.073Z,100452.25
2022-11-01T17:30:49.236Z,100460.91
2022-11-01T17:35:53.268Z,100474.50
2022-11-01T17:40:56.816Z,100465.47
2022-11-01T17:45:59.947Z,100482.53
2022-11-01T17:51:03.975Z,100483.06
2022-11-01T17:56:07.401Z,100481.44
2022-11-01T18:01:10.750Z,100471.53
2022-11-01T18:06:15.238Z,100469.63
2022-11-01T18:11:32.347Z,100471.97
2022-11-01T18:16:42.090Z,100485.47
2022-11-01T18:21:52.302Z,100491.16
2022-11-01T18:26:55.337Z,100491.34
2022-11-01T18:32:03.430Z,100496.09
2022-11-01T18:37:21.544Z,100501.09
2022-11-01T18:42:25.540Z,100502.25
2022-11-01T18:47:33.690Z,100505.09
2022-11-01T18:52:37.603Z,100511.38
2022-11-01T18:57:40.475Z,100518.84
2022-11-01T19:02:43.088Z,100513.22
2022-11-01T19:08:10.241Z,100538.38
2022-11-01T19:13:17.691Z,100528.16
2022-11-01T19:18:22.413Z,100532.16
2022-11-01T19:23:33.529Z,100534.47
2022-11-01T19:28:38.297Z,100531.38
2022-11-01T19:33:41.726Z,100533.38
2022-11-01T19:38:46.103Z,100539.66
2022-11-01T19:43:48.794Z,100535.69
2022-11-01T19:48:52.673Z,100541.44
2022-11-01T19:53:56.585Z,100541.31
2022-11-01T19:58:59.814Z,100544.44
2022-11-01T20:04:04.254Z,100553.69
2022-11-01T20:09:13.702Z,100548.09
2022-11-01T20:14:16.323Z,100562.28
2022-11-01T20:19:20.355Z,100569.72
2022-11-01T20:24:25.521Z,100566.25
2022-11-01T20:29:28.220Z,100573.03
2022-11-01T20:34:30.866Z,100576.47
2022-11-01T20:39:34.980Z,100578.81
2022-11-01T20:44:37.586Z,100571.38
2022-11-01T20:49:42.343Z,100572.19
2022-11-01T20:54:46.457Z,100574.53
2022-11-01T20:59:50.978Z,100573.53
2022-11-01T21:05:01.248Z,100571.22
2022-11-01T21:10:26.904Z,100570.88
2022-11-01T21:15:39.894Z,100581.59
2022-11-01T21:20:44.618Z,100582.72
2022-11-01T21:25:49.509Z,100591.50
2022-11-01T21:30:53.450Z,100591.81
2022-11-01T21:35:56.234Z,100596.09
2022-11-01T21:41:00.408Z,100590.81
2022-11-01T21:46:02.987Z,100598.41
2022-11-01T21:51:05.937Z,100576.94
2022-11-01T21:56:10.057Z,100586.16
2022-11-01T22:01:13.835Z,100578.72
2022-11-01T22:06:16.495Z,100587.63
2022-11-01T22:11:23.629Z,100577.22
2022-11-01T22:16:26.443Z,100580.50
2022-11-01T22:21:29.125Z,100578.50
2022-11-01T22:26:33.040Z,100583.25
2022-11-01T22:31:35.638Z,100589.34
2022-11-01T22:36:38.808Z,100586.03
2022-11-01T22:41:42.983Z,100592.09
2022-11-01T22:46:50.282Z,100585.53
2022-11-01T22:51:57.461Z,100598.72
2022-11-01T22:57:04.150Z,100596.56
2022-11-01T23:02:22.535Z,100590.91
2022-11-01T23:07:32.518Z,100588.59
2022-11-01T23:12:55.446Z,100588.09
2022-11-01T23:18:03.037Z,100593.53
2022-11-01T23:23:05.835Z,100599.25
2022-11-01T23:28:10.139Z,100601.31
2022-11-01T23:33:13.988Z,100610.06
2022-11-01T23:38:19.828Z,100608.91
2022-11-01T23:43:25.615Z,100607.88
2022-11-01T23:48:28.521Z,100599.63
2022-11-01T23:53:34.940Z,100602.56
2022-11-01T23:58:39.217Z,100601.38
